createdAt,value
2023-05-14T00:00:18.453Z,1396.00
2023-05-14T00:01:18.490Z,1406.00
2023-05-14T00:02:18.556Z,1399.00
2023-05-14T00:03:18.730Z,1404.00
2023-05-14T00:04:18.712Z,1406.00
2023-05-14T00:05:18.789Z,1400.00
2023-05-14T00:06:18.755Z,1386.00
2023-05-14T00:07:18.792Z,1393.00
2023-05-14T00:08:18.854Z,1384.00
2023-05-14T00:09:18.871Z,1395.00
2023-05-14T00:10:18.889Z,1365.00
2023-05-14T00:11:18.939Z,1369.00
2023-05-14T00:12:19.002Z,1357.00
2023-05-14T00:13:19.040Z,1352.00
2023-05-14T00:14:19.082Z,1338.00
2023-05-14T00:15:19.111Z,1331.00
2023-05-14T00:16:19.234Z,1330.00
2023-05-14T00:17:19.277Z,1317.00
2023-05-14T00:18:19.281Z,1330.00
2023-05-14T00:19:19.365Z,1330.00
2023-05-14T00:20:19.420Z,1328.00
2023-05-14T00:21:19.503Z,1320.00
2023-05-14T00:22:19.522Z,1332.00
2023-05-14T00:23:19.536Z,1317.00
2023-05-14T00:24:19.590Z,1313.00
2023-05-14T00:25:19.638Z,1329.00
2023-05-14T00:26:19.658Z,1335.00
2023-05-14T00:27:19.718Z,1310.00
2023-05-14T00:28:19.746Z,1314.00
2023-05-14T00:29:19.785Z,1323.00
2023-05-14T00:30:19.834Z,1315.00
2023-05-14T00:31:19.958Z,1333.00
2023-05-14T00:32:19.932Z,1320.00
2023-05-14T00:33:19.972Z,1329.00
2023-05-14T00:34:20.009Z,1325.00
2023-05-14T00:35:20.064Z,1333.00
2023-05-14T00:36:20.087Z,1336.00
2023-05-14T00:37:20.144Z,1321.00
2023-05-14T00:38:20.163Z,1322.00
2023-05-14T00:39:20.230Z,1309.00
2023-05-14T00:40:20.254Z,1303.00
2023-05-14T00:41:20.276Z,1298.00
2023-05-14T00:42:20.363Z,1288.00
2023-05-14T00:43:20.376Z,1289.00
2023-05-14T00:44:20.399Z,1278.00
2023-05-14T00:45:20.445Z,1268.00
2023-05-14T00:46:20.505Z,1264.00
2023-05-14T00:47:20.534Z,1249.00
2023-05-14T00:48:20.528Z,1246.00
2023-05-14T00:49:20.580Z,1253.00
2023-05-14T00:50:20.621Z,1249.00
2023-05-14T00:51:20.674Z,1256.00
2023-05-14T00:52:20.713Z,1265.00
2023-05-14T00:53:20.747Z,1265.00
2023-05-14T00:54:20.776Z,1257.00
2023-05-14T00:55:20.830Z,1247.00
2023-05-14T00:56:20.875Z,1251.00
2023-05-14T00:57:20.919Z,1249.00
2023-05-14T00:58:21.093Z,1257.00
2023-05-14T00:59:21.209Z,1255.00
2023-05-14T01:00:21.408Z,1253.00
2023-05-14T01:01:21.347Z,1257.00
2023-05-14T01:02:21.349Z,1260.00
2023-05-14T01:03:21.493Z,1251.00
2023-05-14T01:04:21.423Z,1226.00
2023-05-14T01:05:21.449Z,1224.00
2023-05-14T01:06:21.483Z,1223.00
2023-05-14T01:07:21.511Z,1218.00
2023-05-14T01:08:21.541Z,1206.00
2023-05-14T01:09:21.570Z,1207.00
2023-05-14T01:10:21.797Z,1219.00
2023-05-14T01:11:21.609Z,1218.00
2023-05-14T01:12:21.625Z,1220.00
2023-05-14T01:13:21.667Z,1212.00
2023-05-14T01:14:21.705Z,1211.00
2023-05-14T01:15:21.730Z,1214.00
2023-05-14T01:16:21.800Z,1202.00
2023-05-14T01:17:21.804Z,1215.00
2023-05-14T01:18:21.825Z,1203.00
2023-05-14T01:19:21.850Z,1210.00
2023-05-14T01:20:22.169Z,1202.00
2023-05-14T01:21:21.927Z,1198.00
2023-05-14T01:22:21.960Z,1207.00
2023-05-14T01:23:21.992Z,1226.00
2023-05-14T01:24:22.104Z,1211.00
2023-05-14T01:25:22.022Z,1216.00
2023-05-14T01:26:22.034Z,1204.00
2023-05-14T01:27:22.055Z,1211.00
2023-05-14T01:28:22.076Z,1222.00
2023-05-14T01:29:22.098Z,1217.00
2023-05-14T01:30:22.328Z,1225.00
2023-05-14T01:31:22.205Z,1224.00
2023-05-14T01:32:22.239Z,1217.00
2023-05-14T01:33:22.256Z,1218.00
2023-05-14T01:34:22.312Z,1213.00
2023-05-14T01:35:22.346Z,1206.00
2023-05-14T01:36:22.350Z,1233.00
2023-05-14T01:37:22.396Z,1213.00
2023-05-14T01:38:22.403Z,1220.00
2023-05-14T01:39:22.409Z,1228.00
2023-05-14T01:40:22.676Z,1228.00
2023-05-14T01:41:22.468Z,1224.00
2023-05-14T01:42:22.503Z,1230.00
2023-05-14T01:43:22.545Z,1216.00
2023-05-14T01:44:22.577Z,1224.00
2023-05-14T01:45:22.625Z,1226.00
2023-05-14T01:46:22.750Z,1227.00
2023-05-14T01:47:22.746Z,1222.00
2023-05-14T01:48:22.742Z,1219.00
2023-05-14T01:49:22.780Z,1232.00
2023-05-14T01:50:22.991Z,1224.00
2023-05-14T01:51:22.850Z,1240.00
2023-05-14T01:52:22.871Z,1233.00
2023-05-14T01:53:22.926Z,1210.00
2023-05-14T01:54:22.956Z,1219.00
2023-05-14T01:55:23.032Z,1222.00
2023-05-14T01:56:23.031Z,1236.00
2023-05-14T01:57:23.041Z,1224.00
2023-05-14T01:58:23.043Z,1220.00
2023-05-14T01:59:23.104Z,1215.00
2023-05-14T02:00:23.425Z,1221.00
2023-05-14T02:01:23.203Z,1234.00
2023-05-14T02:02:23.208Z,1218.00
2023-05-14T02:03:23.170Z,1213.00
2023-05-14T02:04:23.211Z,1230.00
2023-05-14T02:05:23.216Z,1214.00
2023-05-14T02:06:23.248Z,1211.00
2023-05-14T02:07:23.279Z,1214.00
2023-05-14T02:08:23.300Z,1198.00
2023-05-14T02:09:23.347Z,1195.00
2023-05-14T02:10:23.628Z,1180.00
2023-05-14T02:11:23.387Z,1202.00
2023-05-14T02:12:23.422Z,1195.00
2023-05-14T02:13:23.436Z,1190.00
2023-05-14T02:14:23.532Z,1190.00
2023-05-14T02:15:23.485Z,1194.00
2023-05-14T02:16:23.551Z,1185.00
2023-05-14T02:17:23.552Z,1182.00
2023-05-14T02:18:23.576Z,1189.00
2023-05-14T02:19:23.600Z,1186.00
2023-05-14T02:20:23.822Z,1186.00
2023-05-14T02:21:23.689Z,1179.00
2023-05-14T02:22:23.715Z,1185.00
2023-05-14T02:23:34.076Z,1182.00
2023-05-14T02:24:24.797Z,1183.00
2023-05-14T02:25:23.829Z,1184.00
2023-05-14T02:26:23.806Z,1183.00
2023-05-14T02:27:23.747Z,1173.00
2023-05-14T02:28:23.737Z,1171.00
2023-05-14T02:29:23.739Z,1162.00
2023-05-14T02:30:23.905Z,1174.00
2023-05-14T02:31:23.744Z,1180.00
2023-05-14T02:32:23.806Z,1165.00
2023-05-14T02:33:23.780Z,1162.00
2023-05-14T02:34:23.683Z,1176.00
2023-05-14T02:35:23.748Z,1170.00
2023-05-14T02:36:23.828Z,1161.00
2023-05-14T02:37:23.832Z,1156.00
2023-05-14T02:38:23.897Z,1159.00
2023-05-14T02:39:23.959Z,1172.00
2023-05-14T02:40:24.344Z,1150.00
2023-05-14T02:41:24.057Z,1164.00
2023-05-14T02:42:24.109Z,1163.00
2023-05-14T02:43:24.173Z,1144.00
2023-05-14T02:44:24.231Z,1149.00
2023-05-14T02:45:24.301Z,1143.00
2023-05-14T02:46:24.319Z,1148.00
2023-05-14T02:47:24.357Z,1171.00
2023-05-14T02:48:24.397Z,1153.00
2023-05-14T02:49:24.385Z,1142.00
2023-05-14T02:50:24.689Z,1146.00
2023-05-14T02:51:24.425Z,1142.00
2023-05-14T02:52:24.433Z,1151.00
2023-05-14T02:53:24.501Z,1142.00
2023-05-14T02:54:24.562Z,1127.00
2023-05-14T02:55:24.591Z,1131.00
2023-05-14T02:56:24.604Z,1129.00
2023-05-14T02:57:24.777Z,1145.00
2023-05-14T02:58:27.439Z,1133.00
2023-05-14T02:59:24.712Z,1141.00
2023-05-14T03:00:24.993Z,1116.00
2023-05-14T03:01:24.730Z,1114.00
2023-05-14T03:02:24.771Z,1120.00
2023-05-14T03:03:24.691Z,1110.00
2023-05-14T03:04:24.668Z,1106.00
2023-05-14T03:05:24.679Z,1124.00
2023-05-14T03:06:24.643Z,1125.00
2023-05-14T03:07:24.657Z,1107.00
2023-05-14T03:08:24.620Z,1124.00
2023-05-14T03:09:24.624Z,1131.00
2023-05-14T03:10:24.824Z,1111.00
2023-05-14T03:11:24.632Z,1097.00
2023-05-14T03:12:24.608Z,1110.00
2023-05-14T03:13:24.599Z,1100.00
2023-05-14T03:14:24.622Z,1096.00
2023-05-14T03:15:24.636Z,1098.00
2023-05-14T03:16:24.588Z,1097.00
2023-05-14T03:17:24.589Z,1103.00
2023-05-14T03:18:24.605Z,1101.00
2023-05-14T03:19:24.562Z,1099.00
2023-05-14T03:20:24.729Z,1100.00
2023-05-14T03:21:24.539Z,1101.00
2023-05-14T03:22:24.546Z,1096.00
2023-05-14T03:23:24.525Z,1113.00
2023-05-14T03:24:24.520Z,1107.00
2023-05-14T03:25:24.528Z,1095.00
2023-05-14T03:26:24.505Z,1105.00
2023-05-14T03:27:24.492Z,1101.00
2023-05-14T03:28:24.506Z,1115.00
2023-05-14T03:29:24.498Z,1089.00
2023-05-14T03:30:24.809Z,1086.00
2023-05-14T03:31:24.518Z,1101.00
2023-05-14T03:32:24.503Z,1109.00
2023-05-14T03:33:24.484Z,1096.00
2023-05-14T03:34:24.454Z,1105.00
2023-05-14T03:35:24.483Z,1099.00
2023-05-14T03:36:24.560Z,1096.00
2023-05-14T03:37:24.628Z,1075.00
2023-05-14T03:38:24.659Z,1092.00
2023-05-14T03:39:24.717Z,1093.00
2023-05-14T03:40:24.933Z,1090.00
2023-05-14T03:41:24.826Z,1089.00
2023-05-14T03:42:24.873Z,1099.00
2023-05-14T03:43:24.892Z,1083.00
2023-05-14T03:44:24.983Z,1084.00
2023-05-14T03:45:25.016Z,1077.00
2023-05-14T03:46:25.040Z,1079.00
2023-05-14T03:47:25.138Z,1077.00
2023-05-14T03:48:25.177Z,1093.00
2023-05-14T03:49:25.137Z,1086.00
2023-05-14T03:50:25.527Z,1077.00
2023-05-14T03:51:25.224Z,1082.00
2023-05-14T03:52:25.292Z,1088.00
2023-05-14T03:53:25.328Z,1074.00
2023-05-14T03:54:25.382Z,1067.00
2023-05-14T03:55:25.419Z,1085.00
2023-05-14T03:56:25.473Z,1087.00
2023-05-14T03:57:25.569Z,1077.00
2023-05-14T03:58:25.634Z,1073.00
2023-05-14T03:59:25.673Z,1084.00
2023-05-14T04:00:26.091Z,1095.00
2023-05-14T04:01:25.750Z,1092.00
2023-05-14T04:02:25.917Z,1077.00
2023-05-14T04:03:26.019Z,1079.00
2023-05-14T04:04:25.977Z,1071.00
2023-05-14T04:05:25.865Z,1066.00
2023-05-14T04:06:25.971Z,1069.00
2023-05-14T04:07:25.973Z,1068.00
2023-05-14T04:08:26.045Z,1072.00
2023-05-14T04:09:26.069Z,1063.00
2023-05-14T04:10:26.147Z,1049.00
2023-05-14T04:11:26.201Z,1047.00
2023-05-14T04:12:26.235Z,1054.00
2023-05-14T04:13:26.279Z,1055.00
2023-05-14T04:14:26.322Z,1049.00
2023-05-14T04:15:26.365Z,1060.00
2023-05-14T04:16:26.504Z,1048.00
2023-05-14T04:17:26.537Z,1052.00
2023-05-14T04:18:26.601Z,1051.00
2023-05-14T04:19:26.618Z,1053.00
2023-05-14T04:20:26.615Z,1058.00
2023-05-14T04:21:26.645Z,1041.00
2023-05-14T04:22:26.682Z,1046.00
2023-05-14T04:23:26.723Z,1053.00
2023-05-14T04:24:26.803Z,1055.00
2023-05-14T04:25:26.853Z,1051.00
2023-05-14T04:26:26.911Z,1053.00
2023-05-14T04:27:26.970Z,1055.00
2023-05-14T04:28:27.004Z,1051.00
2023-05-14T04:29:27.013Z,1051.00
2023-05-14T04:30:27.068Z,1043.00
2023-05-14T04:31:27.135Z,1049.00
2023-05-14T04:32:27.142Z,1043.00
2023-05-14T04:33:27.179Z,1029.00
2023-05-14T04:34:27.260Z,1026.00
2023-05-14T04:35:27.280Z,1019.00
2023-05-14T04:36:27.381Z,1024.00
2023-05-14T04:37:27.373Z,1027.00
2023-05-14T04:38:27.405Z,1017.00
2023-05-14T04:39:27.462Z,1024.00
2023-05-14T04:40:27.565Z,1015.00
2023-05-14T04:41:27.538Z,995.00
2023-05-14T04:42:27.564Z,1008.00
2023-05-14T04:43:27.626Z,1011.00
2023-05-14T04:44:27.644Z,996.00
2023-05-14T04:45:27.681Z,1003.00
2023-05-14T04:46:27.830Z,1013.00
2023-05-14T04:47:27.826Z,1009.00
2023-05-14T04:48:27.796Z,1009.00
2023-05-14T04:49:27.828Z,1000.00
2023-05-14T04:50:27.901Z,1000.00
2023-05-14T04:51:27.921Z,997.00
2023-05-14T04:52:27.940Z,1004.00
2023-05-14T04:53:27.968Z,990.00
2023-05-14T04:54:28.035Z,1001.00
2023-05-14T04:55:28.064Z,979.00
2023-05-14T04:56:28.100Z,995.00
2023-05-14T04:57:28.128Z,979.00
2023-05-14T04:58:28.173Z,987.00
2023-05-14T04:59:28.223Z,979.00
2023-05-14T05:00:28.277Z,977.00
2023-05-14T05:01:28.377Z,984.00
2023-05-14T05:02:28.410Z,973.00
2023-05-14T05:03:28.479Z,966.00
2023-05-14T05:04:28.376Z,974.00
2023-05-14T05:05:28.384Z,969.00
2023-05-14T05:06:28.445Z,967.00
2023-05-14T05:07:28.482Z,969.00
2023-05-14T05:08:28.524Z,950.00
2023-05-14T05:09:28.551Z,966.00
2023-05-14T05:10:28.601Z,979.00
2023-05-14T05:11:28.648Z,988.00
2023-05-14T05:12:28.677Z,968.00
2023-05-14T05:13:28.703Z,951.00
2023-05-14T05:14:28.711Z,960.00
2023-05-14T05:15:28.748Z,967.00
2023-05-14T05:16:28.806Z,964.00
2023-05-14T05:17:28.840Z,950.00
2023-05-14T05:18:28.910Z,970.00
2023-05-14T05:19:39.545Z,948.00
2023-05-14T05:20:29.903Z,949.00
2023-05-14T05:21:28.915Z,953.00
2023-05-14T05:22:28.914Z,952.00
2023-05-14T05:23:28.898Z,954.00
2023-05-14T05:24:28.871Z,963.00
2023-05-14T05:25:28.885Z,944.00
2023-05-14T05:26:28.966Z,946.00
2023-05-14T05:27:28.870Z,947.00
2023-05-14T05:28:28.852Z,945.00
2023-05-14T05:29:28.900Z,939.00
2023-05-14T05:30:28.954Z,939.00
2023-05-14T05:31:29.089Z,943.00
2023-05-14T05:32:29.141Z,949.00
2023-05-14T05:33:29.094Z,949.00
2023-05-14T05:34:29.177Z,946.00
2023-05-14T05:35:29.217Z,956.00
2023-05-14T05:36:29.258Z,948.00
2023-05-14T05:37:29.274Z,930.00
2023-05-14T05:38:29.325Z,935.00
2023-05-14T05:39:29.476Z,936.00
2023-05-14T05:40:29.543Z,948.00
2023-05-14T05:41:29.727Z,949.00
2023-05-14T05:42:29.891Z,926.00
2023-05-14T05:43:29.956Z,919.00
2023-05-14T05:44:30.054Z,924.00
2023-05-14T05:45:30.053Z,899.00
2023-05-14T05:46:30.103Z,896.00
2023-05-14T05:47:30.163Z,899.00
2023-05-14T05:48:30.205Z,886.00
2023-05-14T05:49:30.255Z,882.00
2023-05-14T05:50:30.305Z,872.00
2023-05-14T05:51:30.372Z,903.00
2023-05-14T05:52:30.402Z,893.00
2023-05-14T05:53:30.537Z,879.00
2023-05-14T05:54:30.509Z,874.00
2023-05-14T05:55:30.490Z,878.00
2023-05-14T05:56:30.570Z,872.00
2023-05-14T05:57:30.617Z,886.00
2023-05-14T05:58:30.596Z,879.00
2023-05-14T05:59:30.663Z,901.00
2023-05-14T06:00:30.702Z,906.00
2023-05-14T06:01:30.719Z,879.00
2023-05-14T06:02:30.915Z,883.00
2023-05-14T06:03:30.777Z,878.00
2023-05-14T06:04:30.808Z,883.00
2023-05-14T06:05:30.881Z,859.00
2023-05-14T06:06:30.878Z,883.00
2023-05-14T06:07:30.961Z,878.00
2023-05-14T06:08:30.983Z,871.00
2023-05-14T06:09:31.015Z,881.00
2023-05-14T06:10:31.064Z,917.00
2023-05-14T06:11:31.125Z,916.00
2023-05-14T06:12:31.186Z,899.00
2023-05-14T06:13:31.239Z,907.00
2023-05-14T06:14:31.291Z,906.00
2023-05-14T06:15:31.410Z,889.00
2023-05-14T06:16:31.435Z,884.00
2023-05-14T06:17:31.501Z,882.00
2023-05-14T06:18:31.547Z,893.00
2023-05-14T06:19:31.545Z,872.00
2023-05-14T06:20:31.552Z,873.00
2023-05-14T06:21:31.596Z,869.00
2023-05-14T06:22:31.663Z,860.00
2023-05-14T06:23:31.725Z,888.00
2023-05-14T06:24:31.762Z,892.00
2023-05-14T06:25:31.806Z,869.00
2023-05-14T06:26:31.846Z,849.00
2023-05-14T06:27:31.886Z,846.00
2023-05-14T06:28:31.930Z,874.00
2023-05-14T06:29:31.954Z,865.00
2023-05-14T06:30:32.019Z,836.00
2023-05-14T06:31:32.118Z,819.00
2023-05-14T06:32:32.151Z,836.00
2023-05-14T06:33:32.148Z,845.00
2023-05-14T06:34:32.196Z,869.00
2023-05-14T06:35:32.209Z,878.00
2023-05-14T06:36:32.303Z,879.00
2023-05-14T06:37:32.247Z,854.00
2023-05-14T06:38:32.289Z,858.00
2023-05-14T06:39:32.333Z,849.00
2023-05-14T06:40:32.397Z,843.00
2023-05-14T06:41:32.373Z,830.00
2023-05-14T06:42:32.435Z,803.00
2023-05-14T06:43:32.482Z,829.00
2023-05-14T06:44:32.504Z,824.00
2023-05-14T06:45:33.256Z,846.00
2023-05-14T06:46:32.548Z,820.00
2023-05-14T06:47:32.599Z,796.00
2023-05-14T06:48:32.698Z,806.00
2023-05-14T06:49:32.660Z,820.00
2023-05-14T06:50:32.698Z,792.00
2023-05-14T06:51:32.733Z,778.00
2023-05-14T06:52:32.746Z,787.00
2023-05-14T06:53:32.765Z,787.00
2023-05-14T06:54:32.818Z,782.00
2023-05-14T06:55:32.839Z,801.00
2023-05-14T06:56:32.892Z,806.00
2023-05-14T06:57:32.941Z,800.00
2023-05-14T06:58:32.953Z,788.00
2023-05-14T06:59:32.986Z,785.00
2023-05-14T07:00:33.031Z,805.00
2023-05-14T07:01:33.121Z,770.00
2023-05-14T07:02:33.081Z,758.00
2023-05-14T07:03:33.150Z,751.00
2023-05-14T07:04:33.236Z,771.00
2023-05-14T07:05:33.227Z,785.00
2023-05-14T07:06:33.262Z,797.00
2023-05-14T07:07:33.285Z,794.00
2023-05-14T07:08:33.312Z,794.00
2023-05-14T07:09:33.380Z,781.00
2023-05-14T07:10:33.413Z,817.00
2023-05-14T07:11:33.483Z,807.00
2023-05-14T07:12:33.517Z,829.00
2023-05-14T07:13:33.569Z,840.00
2023-05-14T07:14:33.630Z,841.00
2023-05-14T07:15:33.686Z,832.00
2023-05-14T07:16:33.774Z,832.00
2023-05-14T07:17:33.808Z,835.00
2023-05-14T07:18:33.907Z,847.00
2023-05-14T07:19:33.880Z,824.00
2023-05-14T07:20:33.963Z,842.00
2023-05-14T07:21:34.002Z,829.00
2023-05-14T07:22:34.096Z,832.00
2023-05-14T07:23:34.186Z,839.00
2023-05-14T07:24:34.200Z,843.00
2023-05-14T07:25:34.243Z,830.00
2023-05-14T07:26:34.404Z,842.00
2023-05-14T07:27:34.464Z,842.00
2023-05-14T07:28:34.501Z,827.00
2023-05-14T07:29:34.563Z,819.00
2023-05-14T07:30:34.620Z,816.00
2023-05-14T07:31:34.825Z,834.00
2023-05-14T07:32:34.760Z,819.00
2023-05-14T07:33:34.791Z,805.00
2023-05-14T07:34:34.872Z,807.00
2023-05-14T07:35:34.913Z,819.00
2023-05-14T07:36:34.976Z,825.00
2023-05-14T07:37:35.061Z,841.00
2023-05-14T07:38:35.097Z,839.00
2023-05-14T07:39:35.136Z,864.00
2023-05-14T07:40:35.203Z,904.00
2023-05-14T07:41:35.229Z,926.00
2023-05-14T07:42:37.085Z,930.00
2023-05-14T07:43:35.342Z,971.00
2023-05-14T07:44:35.373Z,989.00
2023-05-14T07:45:35.437Z,1028.00
2023-05-14T07:46:35.509Z,1027.00
2023-05-14T07:47:35.622Z,1030.00
2023-05-14T07:48:35.621Z,1063.00
2023-05-14T07:49:35.613Z,1060.00
2023-05-14T07:50:35.667Z,1049.00
2023-05-14T07:51:35.718Z,1071.00
2023-05-14T07:52:35.748Z,1090.00
2023-05-14T07:53:35.776Z,1076.00
2023-05-14T07:54:35.820Z,1054.00
2023-05-14T07:55:35.872Z,1036.00
2023-05-14T07:56:35.933Z,1000.00
2023-05-14T07:57:35.966Z,985.00
2023-05-14T07:58:36.006Z,978.00
2023-05-14T07:59:36.059Z,945.00
2023-05-14T08:00:36.115Z,912.00
2023-05-14T08:01:37.763Z,895.00
2023-05-14T08:02:36.249Z,896.00
2023-05-14T08:03:36.191Z,877.00
2023-05-14T08:04:36.330Z,864.00
2023-05-14T08:05:36.117Z,864.00
2023-05-14T08:06:36.137Z,833.00
2023-05-14T08:07:36.087Z,830.00
2023-05-14T08:08:36.083Z,802.00
2023-05-14T08:09:36.101Z,797.00
2023-05-14T08:10:36.137Z,796.00
2023-05-14T08:11:36.095Z,781.00
2023-05-14T08:12:36.066Z,768.00
2023-05-14T08:13:36.062Z,768.00
2023-05-14T08:14:36.141Z,736.00
2023-05-14T08:15:36.056Z,742.00
2023-05-14T08:16:36.057Z,765.00
2023-05-14T08:17:36.034Z,744.00
2023-05-14T08:18:36.033Z,765.00
2023-05-14T08:19:36.037Z,732.00
2023-05-14T08:20:36.023Z,699.00
2023-05-14T08:21:36.017Z,722.00
2023-05-14T08:22:35.985Z,708.00
2023-05-14T08:23:36.002Z,723.00
2023-05-14T08:24:36.062Z,695.00
2023-05-14T08:25:35.985Z,698.00
2023-05-14T08:26:35.976Z,719.00
2023-05-14T08:27:35.968Z,702.00
2023-05-14T08:28:35.959Z,691.00
2023-05-14T08:29:35.933Z,711.00
2023-05-14T08:30:35.992Z,708.00
2023-05-14T08:31:35.920Z,731.00
2023-05-14T08:32:35.926Z,732.00
2023-05-14T08:33:35.922Z,759.00
2023-05-14T08:34:35.953Z,747.00
2023-05-14T08:35:35.890Z,736.00
2023-05-14T08:36:35.896Z,737.00
2023-05-14T08:37:35.887Z,740.00
2023-05-14T08:38:35.874Z,752.00
2023-05-14T08:39:35.865Z,747.00
2023-05-14T08:40:35.961Z,752.00
2023-05-14T08:41:35.864Z,750.00
2023-05-14T08:42:35.863Z,735.00
2023-05-14T08:43:35.833Z,758.00
2023-05-14T08:44:35.967Z,746.00
2023-05-14T08:45:35.852Z,749.00
2023-05-14T08:46:35.837Z,753.00
2023-05-14T08:47:35.816Z,759.00
2023-05-14T08:48:35.818Z,727.00
2023-05-14T08:49:35.804Z,745.00
2023-05-14T08:50:35.801Z,737.00
2023-05-14T08:51:35.775Z,741.00
2023-05-14T08:52:35.798Z,749.00
2023-05-14T08:53:35.766Z,749.00
2023-05-14T08:54:35.750Z,727.00
2023-05-14T08:55:35.748Z,738.00
2023-05-14T08:56:35.743Z,732.00
2023-05-14T08:57:35.750Z,751.00
2023-05-14T08:58:35.732Z,723.00
2023-05-14T08:59:35.734Z,749.00
2023-05-14T09:00:35.718Z,744.00
2023-05-14T09:01:35.741Z,743.00
2023-05-14T09:02:35.762Z,724.00
2023-05-14T09:03:35.727Z,725.00
2023-05-14T09:04:35.702Z,716.00
2023-05-14T09:05:35.693Z,703.00
2023-05-14T09:06:35.689Z,687.00
2023-05-14T09:07:35.683Z,708.00
2023-05-14T09:08:35.671Z,690.00
2023-05-14T09:09:35.688Z,702.00
2023-05-14T09:10:35.710Z,721.00
2023-05-14T09:11:35.756Z,692.00
2023-05-14T09:12:35.768Z,691.00
2023-05-14T09:13:35.808Z,690.00
2023-05-14T09:14:35.818Z,710.00
2023-05-14T09:15:35.855Z,695.00
2023-05-14T09:16:35.905Z,711.00
2023-05-14T09:17:35.980Z,719.00
2023-05-14T09:18:35.941Z,713.00
2023-05-14T09:19:35.946Z,726.00
2023-05-14T09:20:35.999Z,730.00
2023-05-14T09:21:35.981Z,734.00
2023-05-14T09:22:36.025Z,756.00
2023-05-14T09:23:36.034Z,748.00
2023-05-14T09:24:36.043Z,741.00
2023-05-14T09:25:36.092Z,742.00
2023-05-14T09:26:36.092Z,736.00
2023-05-14T09:27:36.116Z,722.00
2023-05-14T09:28:36.107Z,720.00
2023-05-14T09:29:36.125Z,720.00
2023-05-14T09:30:36.159Z,755.00
2023-05-14T09:31:36.169Z,766.00
2023-05-14T09:32:36.138Z,760.00
2023-05-14T09:33:36.127Z,766.00
2023-05-14T09:34:36.115Z,748.00
2023-05-14T09:35:36.123Z,755.00
2023-05-14T09:36:36.163Z,763.00
2023-05-14T09:37:36.168Z,779.00
2023-05-14T09:38:36.175Z,765.00
2023-05-14T09:39:36.207Z,773.00
2023-05-14T09:40:36.220Z,766.00
2023-05-14T09:41:36.237Z,745.00
2023-05-14T09:42:36.240Z,739.00
2023-05-14T09:43:36.274Z,743.00
2023-05-14T09:44:36.279Z,745.00
2023-05-14T09:45:36.278Z,749.00
2023-05-14T09:46:36.302Z,754.00
2023-05-14T09:47:36.433Z,747.00
2023-05-14T09:48:36.384Z,743.00
2023-05-14T09:49:36.369Z,732.00
2023-05-14T09:50:36.374Z,728.00
2023-05-14T09:51:36.387Z,730.00
2023-05-14T09:52:36.418Z,726.00
2023-05-14T09:53:36.396Z,710.00
2023-05-14T09:54:36.406Z,713.00
2023-05-14T09:55:36.446Z,701.00
2023-05-14T09:56:36.454Z,703.00
2023-05-14T09:57:36.457Z,705.00
2023-05-14T09:58:36.480Z,712.00
2023-05-14T09:59:36.484Z,689.00
2023-05-14T10:00:36.478Z,690.00
2023-05-14T10:01:36.577Z,690.00
2023-05-14T10:02:36.530Z,706.00
2023-05-14T10:03:36.540Z,687.00
2023-05-14T10:04:36.619Z,693.00
2023-05-14T10:05:36.570Z,689.00
2023-05-14T10:06:36.583Z,691.00
2023-05-14T10:07:36.591Z,688.00
2023-05-14T10:08:36.599Z,663.00
2023-05-14T10:09:36.628Z,665.00
2023-05-14T10:10:36.599Z,667.00
2023-05-14T10:11:36.634Z,666.00
2023-05-14T10:12:36.600Z,666.00
2023-05-14T10:13:36.632Z,662.00
2023-05-14T10:14:36.624Z,663.00
2023-05-14T10:15:36.634Z,663.00
2023-05-14T10:16:36.654Z,692.00
2023-05-14T10:17:36.739Z,672.00
2023-05-14T10:18:36.708Z,677.00
2023-05-14T10:19:36.694Z,667.00
2023-05-14T10:20:36.698Z,670.00
2023-05-14T10:21:36.682Z,686.00
2023-05-14T10:22:36.712Z,683.00
2023-05-14T10:23:36.732Z,669.00
2023-05-14T10:24:36.711Z,678.00
2023-05-14T10:25:36.721Z,678.00
2023-05-14T10:26:36.723Z,665.00
2023-05-14T10:27:36.728Z,656.00
2023-05-14T10:28:36.733Z,658.00
2023-05-14T10:29:36.760Z,660.00
2023-05-14T10:30:36.767Z,661.00
2023-05-14T10:31:36.865Z,663.00
2023-05-14T10:32:36.833Z,666.00
2023-05-14T10:33:36.772Z,673.00
2023-05-14T10:34:36.782Z,665.00
2023-05-14T10:35:36.799Z,650.00
2023-05-14T10:36:36.786Z,652.00
2023-05-14T10:37:36.773Z,651.00
2023-05-14T10:38:36.800Z,649.00
2023-05-14T10:39:36.792Z,646.00
2023-05-14T10:40:36.764Z,648.00
2023-05-14T10:41:36.779Z,640.00
2023-05-14T10:42:36.814Z,641.00
2023-05-14T10:43:36.809Z,638.00
2023-05-14T10:44:36.818Z,644.00
2023-05-14T10:45:36.814Z,644.00
2023-05-14T10:46:36.872Z,639.00
2023-05-14T10:47:36.867Z,646.00
2023-05-14T10:48:36.804Z,644.00
2023-05-14T10:49:43.291Z,638.00
2023-05-14T10:50:37.809Z,638.00
2023-05-14T10:51:36.910Z,639.00
2023-05-14T10:52:36.822Z,638.00
2023-05-14T10:53:36.791Z,630.00
2023-05-14T10:54:36.774Z,631.00
2023-05-14T10:55:36.771Z,629.00
2023-05-14T10:56:36.768Z,639.00
2023-05-14T10:57:36.743Z,644.00
2023-05-14T10:58:36.751Z,639.00
2023-05-14T10:59:36.748Z,639.00
2023-05-14T11:00:36.732Z,641.00
2023-05-14T11:01:36.750Z,643.00
2023-05-14T11:02:36.715Z,644.00
2023-05-14T11:03:36.757Z,645.00
2023-05-14T11:04:36.736Z,640.00
2023-05-14T11:05:36.685Z,634.00
2023-05-14T11:06:36.679Z,635.00
2023-05-14T11:07:36.696Z,634.00
2023-05-14T11:08:36.673Z,634.00
2023-05-14T11:09:36.680Z,630.00
2023-05-14T11:10:36.683Z,627.00
2023-05-14T11:11:36.656Z,621.00
2023-05-14T11:12:36.674Z,621.00
2023-05-14T11:13:36.653Z,628.00
2023-05-14T11:14:36.644Z,622.00
2023-05-14T11:15:36.647Z,638.00
2023-05-14T11:16:36.661Z,637.00
2023-05-14T11:17:36.663Z,636.00
2023-05-14T11:18:36.626Z,630.00
2023-05-14T11:19:36.601Z,629.00
2023-05-14T11:20:36.604Z,637.00
2023-05-14T11:21:36.617Z,633.00
2023-05-14T11:22:36.594Z,619.00
2023-05-14T11:23:36.578Z,630.00
2023-05-14T11:24:36.570Z,626.00
2023-05-14T11:25:36.560Z,628.00
2023-05-14T11:26:36.582Z,635.00
2023-05-14T11:27:36.563Z,632.00
2023-05-14T11:28:36.539Z,637.00
2023-05-14T11:29:36.543Z,645.00
2023-05-14T11:30:36.543Z,643.00
2023-05-14T11:31:36.566Z,633.00
2023-05-14T11:32:36.581Z,628.00
2023-05-14T11:33:36.520Z,631.00
2023-05-14T11:34:36.500Z,632.00
2023-05-14T11:35:36.506Z,631.00
2023-05-14T11:36:36.478Z,626.00
2023-05-14T11:37:36.497Z,627.00
2023-05-14T11:38:36.474Z,627.00
2023-05-14T11:39:36.462Z,631.00
2023-05-14T11:40:36.481Z,634.00
2023-05-14T11:41:36.485Z,639.00
2023-05-14T11:42:36.509Z,629.00
2023-05-14T11:43:36.510Z,618.00
2023-05-14T11:44:36.522Z,618.00
2023-05-14T11:45:36.548Z,615.00
2023-05-14T11:46:36.664Z,612.00
2023-05-14T11:47:36.613Z,612.00
2023-05-14T11:48:36.565Z,616.00
2023-05-14T11:49:36.596Z,622.00
2023-05-14T11:50:36.620Z,619.00
2023-05-14T11:51:36.617Z,617.00
2023-05-14T11:52:36.641Z,610.00
2023-05-14T11:53:36.679Z,598.00
2023-05-14T11:54:36.699Z,600.00
2023-05-14T11:55:36.720Z,601.00
2023-05-14T11:56:36.735Z,603.00
2023-05-14T11:57:36.799Z,601.00
2023-05-14T11:58:36.806Z,605.00
2023-05-14T11:59:36.802Z,600.00
2023-05-14T12:00:36.832Z,607.00
2023-05-14T12:01:36.866Z,610.00
2023-05-14T12:02:37.013Z,606.00
2023-05-14T12:03:37.072Z,607.00
2023-05-14T12:04:36.981Z,605.00
2023-05-14T12:05:36.942Z,594.00
2023-05-14T12:06:37.008Z,591.00
2023-05-14T12:07:37.026Z,614.00
2023-05-14T12:08:37.041Z,609.00
2023-05-14T12:09:37.070Z,607.00
2023-05-14T12:10:37.095Z,623.00
2023-05-14T12:11:37.173Z,620.00
2023-05-14T12:12:37.411Z,619.00
2023-05-14T12:13:37.214Z,614.00
2023-05-14T12:14:37.247Z,609.00
2023-05-14T12:15:37.275Z,610.00
2023-05-14T12:16:38.509Z,610.00
2023-05-14T12:17:37.389Z,620.00
2023-05-14T12:18:37.495Z,604.00
2023-05-14T12:19:37.417Z,601.00